sensor_id;sensor_type;location;lat;lon;timestamp;P1;durP1;ratioP1;P2;durP2;ratioP2
70253;SDS011;57649;42.968;1.608;2024-02-04T00:01:30;12.13;;;7.60;;
70253;SDS011;57649;42.968;1.608;2024-02-04T00:03:55;13.05;;;7.95;;
70253;SDS011;57649;42.968;1.608;2024-02-04T00:06:21;12.23;;;7.25;;
70253;SDS011;57649;42.968;1.608;2024-02-04T00:08:49;13.18;;;6.78;;
70253;SDS011;57649;42.968;1.608;2024-02-04T00:11:14;12.00;;;7.18;;
70253;SDS011;57649;42.968;1.608;2024-02-04T00:13:40;11.68;;;6.80;;
70253;SDS011;57649;42.968;1.608;2024-02-04T00:16:05;12.23;;;7.50;;
70253;SDS011;57649;42.968;1.608;2024-02-04T00:18:31;11.30;;;6.95;;
70253;SDS011;57649;42.968;1.608;2024-02-04T00:20:57;11.90;;;6.97;;
70253;SDS011;57649;42.968;1.608;2024-02-04T00:23:22;13.40;;;7.25;;
70253;SDS011;57649;42.968;1.608;2024-02-04T00:25:47;10.48;;;7.28;;
70253;SDS011;57649;42.968;1.608;2024-02-04T00:28:13;9.30;;;6.63;;
70253;SDS011;57649;42.968;1.608;2024-02-04T00:30:38;13.93;;;6.85;;
70253;SDS011;57649;42.968;1.608;2024-02-04T00:33:04;10.18;;;6.60;;
70253;SDS011;57649;42.968;1.608;2024-02-04T00:35:30;10.82;;;7.15;;
70253;SDS011;57649;42.968;1.608;2024-02-04T00:37:58;11.15;;;7.28;;
70253;SDS011;57649;42.968;1.608;2024-02-04T00:40:23;11.65;;;7.63;;
70253;SDS011;57649;42.968;1.608;2024-02-04T00:42:51;15.13;;;8.05;;
70253;SDS011;57649;42.968;1.608;2024-02-04T00:45:21;10.43;;;6.93;;
70253;SDS011;57649;42.968;1.608;2024-02-04T00:47:47;14.18;;;7.55;;
70253;SDS011;57649;42.968;1.608;2024-02-04T00:50:12;13.15;;;6.97;;
70253;SDS011;57649;42.968;1.608;2024-02-04T00:52:41;9.63;;;6.38;;
70253;SDS011;57649;42.968;1.608;2024-02-04T00:55:09;9.00;;;5.47;;
70253;SDS011;57649;42.968;1.608;2024-02-04T00:57:36;8.15;;;5.07;;
70253;SDS011;57649;42.968;1.608;2024-02-04T01:00:01;8.25;;;5.40;;
70253;SDS011;57649;42.968;1.608;2024-02-04T01:02:27;10.27;;;5.90;;
70253;SDS011;57649;42.968;1.608;2024-02-04T01:04:53;11.40;;;6.43;;
70253;SDS011;57649;42.968;1.608;2024-02-04T01:07:18;10.55;;;6.68;;
70253;SDS011;57649;42.968;1.608;2024-02-04T01:09:43;11.05;;;6.35;;
70253;SDS011;57649;42.968;1.608;2024-02-04T01:12:09;8.93;;;5.43;;
70253;SDS011;57649;42.968;1.608;2024-02-04T01:14:34;8.95;;;5.47;;
70253;SDS011;57649;42.968;1.608;2024-02-04T01:17:00;9.48;;;5.63;;
70253;SDS011;57649;42.968;1.608;2024-02-04T01:19:25;10.13;;;5.65;;
70253;SDS011;57649;42.968;1.608;2024-02-04T01:21:51;10.57;;;5.57;;
70253;SDS011;57649;42.968;1.608;2024-02-04T01:24:16;9.25;;;5.00;;
70253;SDS011;57649;42.968;1.608;2024-02-04T01:26:42;9.65;;;5.15;;
70253;SDS011;57649;42.968;1.608;2024-02-04T01:29:07;10.50;;;5.60;;
70253;SDS011;57649;42.968;1.608;2024-02-04T01:31:35;9.32;;;5.43;;
70253;SDS011;57649;42.968;1.608;2024-02-04T01:36:28;10.82;;;7.00;;
70253;SDS011;57649;42.968;1.608;2024-02-04T01:38:53;11.93;;;6.57;;
70253;SDS011;57649;42.968;1.608;2024-02-04T01:41:19;13.70;;;7.65;;
70253;SDS011;57649;42.968;1.608;2024-02-04T01:43:44;11.20;;;6.53;;
70253;SDS011;57649;42.968;1.608;2024-02-04T01:46:12;12.40;;;7.20;;
70253;SDS011;57649;42.968;1.608;2024-02-04T01:48:43;11.27;;;7.38;;
70253;SDS011;57649;42.968;1.608;2024-02-04T01:51:11;12.88;;;8.27;;
70253;SDS011;57649;42.968;1.608;2024-02-04T01:53:39;12.50;;;8.50;;
70253;SDS011;57649;42.968;1.608;2024-02-04T01:56:06;13.20;;;7.10;;
70253;SDS011;57649;42.968;1.608;2024-02-04T01:58:32;10.38;;;6.57;;
70253;SDS011;57649;42.968;1.608;2024-02-04T02:00:59;11.05;;;7.00;;
70253;SDS011;57649;42.968;1.608;2024-02-04T02:03:27;12.98;;;7.35;;
70253;SDS011;57649;42.968;1.608;2024-02-04T02:05:55;10.35;;;6.75;;
70253;SDS011;57649;42.968;1.608;2024-02-04T02:08:22;10.43;;;7.00;;
70253;SDS011;57649;42.968;1.608;2024-02-04T02:10:48;11.73;;;7.25;;
70253;SDS011;57649;42.968;1.608;2024-02-04T02:13:27;10.70;;;6.15;;
70253;SDS011;57649;42.968;1.608;2024-02-04T02:16:01;7.88;;;5.28;;
70253;SDS011;57649;42.968;1.608;2024-02-04T02:18:43;7.85;;;4.72;;
70253;SDS011;57649;42.968;1.608;2024-02-04T02:26:29;9.13;;;6.05;;
70253;SDS011;57649;42.968;1.608;2024-02-04T02:28:57;12.65;;;6.32;;
70253;SDS011;57649;42.968;1.608;2024-02-04T02:31:22;8.48;;;5.72;;
70253;SDS011;57649;42.968;1.608;2024-02-04T02:33:48;9.38;;;5.38;;
70253;SDS011;57649;42.968;1.608;2024-02-04T02:36:14;12.80;;;5.85;;
70253;SDS011;57649;42.968;1.608;2024-02-04T02:38:49;8.68;;;5.30;;
70253;SDS011;57649;42.968;1.608;2024-02-04T02:41:23;9.43;;;5.03;;
70253;SDS011;57649;42.968;1.608;2024-02-04T02:43:51;8.93;;;5.18;;
70253;SDS011;57649;42.968;1.608;2024-02-04T02:46:20;7.40;;;4.00;;
70253;SDS011;57649;42.968;1.608;2024-02-04T02:48:46;7.53;;;3.92;;
70253;SDS011;57649;42.968;1.608;2024-02-04T02:51:26;7.00;;;3.40;;
70253;SDS011;57649;42.968;1.608;2024-02-04T02:53:55;7.22;;;4.13;;
70253;SDS011;57649;42.968;1.608;2024-02-04T02:56:22;8.82;;;3.70;;
70253;SDS011;57649;42.968;1.608;2024-02-04T02:58:50;8.18;;;3.88;;
70253;SDS011;57649;42.968;1.608;2024-02-04T03:01:21;6.32;;;3.75;;
70253;SDS011;57649;42.968;1.608;2024-02-04T03:03:49;5.18;;;3.53;;
70253;SDS011;57649;42.968;1.608;2024-02-04T03:06:14;5.63;;;3.55;;
70253;SDS011;57649;42.968;1.608;2024-02-04T03:08:40;4.45;;;3.22;;
70253;SDS011;57649;42.968;1.608;2024-02-04T03:11:05;5.32;;;3.60;;
70253;SDS011;57649;42.968;1.608;2024-02-04T03:13:37;7.15;;;4.63;;
70253;SDS011;57649;42.968;1.608;2024-02-04T03:16:03;10.80;;;5.15;;
70253;SDS011;57649;42.968;1.608;2024-02-04T03:18:34;7.28;;;5.03;;
70253;SDS011;57649;42.968;1.608;2024-02-04T03:21:02;8.15;;;5.50;;
70253;SDS011;57649;42.968;1.608;2024-02-04T03:23:27;7.40;;;5.45;;
70253;SDS011;57649;42.968;1.608;2024-02-04T03:25:55;9.20;;;5.47;;
70253;SDS011;57649;42.968;1.608;2024-02-04T03:30:51;10.57;;;5.65;;
70253;SDS011;57649;42.968;1.608;2024-02-04T03:33:16;10.07;;;5.82;;
70253;SDS011;57649;42.968;1.608;2024-02-04T03:35:42;9.70;;;5.88;;
70253;SDS011;57649;42.968;1.608;2024-02-04T03:38:07;7.68;;;5.20;;
70253;SDS011;57649;42.968;1.608;2024-02-04T03:40:33;9.05;;;5.18;;
70253;SDS011;57649;42.968;1.608;2024-02-04T03:42:58;6.50;;;5.00;;
70253;SDS011;57649;42.968;1.608;2024-02-04T03:45:23;11.38;;;5.20;;
70253;SDS011;57649;42.968;1.608;2024-02-04T03:47:49;7.95;;;5.20;;
70253;SDS011;57649;42.968;1.608;2024-02-04T03:50:14;7.78;;;4.35;;
70253;SDS011;57649;42.968;1.608;2024-02-04T03:52:39;8.20;;;4.35;;
70253;SDS011;57649;42.968;1.608;2024-02-04T03:55:05;6.63;;;4.03;;
70253;SDS011;57649;42.968;1.608;2024-02-04T03:57:32;8.00;;;4.63;;
70253;SDS011;57649;42.968;1.608;2024-02-04T03:59:57;7.03;;;3.83;;
70253;SDS011;57649;42.968;1.608;2024-02-04T04:02:23;5.80;;;3.22;;
70253;SDS011;57649;42.968;1.608;2024-02-04T04:04:48;6.30;;;3.63;;
70253;SDS011;57649;42.968;1.608;2024-02-04T04:07:14;6.35;;;3.08;;
70253;SDS011;57649;42.968;1.608;2024-02-04T04:09:39;7.30;;;3.28;;
70253;SDS011;57649;42.968;1.608;2024-02-04T04:12:04;6.88;;;4.03;;
70253;SDS011;57649;42.968;1.608;2024-02-04T04:14:30;4.93;;;2.85;;
70253;SDS011;57649;42.968;1.608;2024-02-04T04:16:56;5.82;;;3.30;;
70253;SDS011;57649;42.968;1.608;2024-02-04T04:19:29;4.50;;;2.78;;
70253;SDS011;57649;42.968;1.608;2024-02-04T04:21:55;5.75;;;3.63;;
70253;SDS011;57649;42.968;1.608;2024-02-04T04:24:21;5.75;;;3.50;;
70253;SDS011;57649;42.968;1.608;2024-02-04T04:26:49;5.32;;;3.25;;
70253;SDS011;57649;42.968;1.608;2024-02-04T04:29:15;4.45;;;3.13;;
70253;SDS011;57649;42.968;1.608;2024-02-04T04:31:40;5.57;;;3.70;;
70253;SDS011;57649;42.968;1.608;2024-02-04T04:34:05;4.28;;;2.90;;
70253;SDS011;57649;42.968;1.608;2024-02-04T04:36:31;5.45;;;3.13;;
70253;SDS011;57649;42.968;1.608;2024-02-04T04:38:56;4.50;;;2.95;;
70253;SDS011;57649;42.968;1.608;2024-02-04T04:41:21;4.15;;;3.03;;
70253;SDS011;57649;42.968;1.608;2024-02-04T04:43:47;5.00;;;3.35;;
70253;SDS011;57649;42.968;1.608;2024-02-04T04:46:12;7.28;;;4.43;;
70253;SDS011;57649;42.968;1.608;2024-02-04T04:48:38;7.32;;;4.05;;
70253;SDS011;57649;42.968;1.608;2024-02-04T04:51:03;7.22;;;4.72;;
70253;SDS011;57649;42.968;1.608;2024-02-04T04:53:29;8.30;;;4.95;;
70253;SDS011;57649;42.968;1.608;2024-02-04T04:55:54;6.80;;;4.47;;
70253;SDS011;57649;42.968;1.608;2024-02-04T04:58:19;9.57;;;5.00;;
70253;SDS011;57649;42.968;1.608;2024-02-04T05:00:45;9.88;;;4.97;;
70253;SDS011;57649;42.968;1.608;2024-02-04T05:03:11;7.63;;;4.60;;
70253;SDS011;57649;42.968;1.608;2024-02-04T05:05:36;6.65;;;4.60;;
70253;SDS011;57649;42.968;1.608;2024-02-04T05:08:02;8.10;;;4.90;;
70253;SDS011;57649;42.968;1.608;2024-02-04T05:10:27;7.35;;;4.47;;
70253;SDS011;57649;42.968;1.608;2024-02-04T05:12:53;6.57;;;4.85;;
70253;SDS011;57649;42.968;1.608;2024-02-04T05:15:18;8.02;;;5.15;;
70253;SDS011;57649;42.968;1.608;2024-02-04T05:17:43;6.97;;;5.10;;
70253;SDS011;57649;42.968;1.608;2024-02-04T05:20:09;8.35;;;5.00;;
70253;SDS011;57649;42.968;1.608;2024-02-04T05:22:35;7.15;;;4.53;;
70253;SDS011;57649;42.968;1.608;2024-02-04T05:25:00;5.78;;;3.70;;
70253;SDS011;57649;42.968;1.608;2024-02-04T05:27:26;6.20;;;3.38;;
70253;SDS011;57649;42.968;1.608;2024-02-04T05:29:51;4.82;;;3.70;;
70253;SDS011;57649;42.968;1.608;2024-02-04T05:32:16;7.10;;;3.50;;
70253;SDS011;57649;42.968;1.608;2024-02-04T05:34:42;8.40;;;3.80;;
70253;SDS011;57649;42.968;1.608;2024-02-04T05:37:07;7.20;;;4.13;;
70253;SDS011;57649;42.968;1.608;2024-02-04T05:39:33;9.05;;;4.05;;
70253;SDS011;57649;42.968;1.608;2024-02-04T05:41:58;6.55;;;3.80;;
70253;SDS011;57649;42.968;1.608;2024-02-04T05:44:23;8.43;;;4.47;;
70253;SDS011;57649;42.968;1.608;2024-02-04T05:46:49;5.07;;;3.00;;
70253;SDS011;57649;42.968;1.608;2024-02-04T05:49:14;6.18;;;3.85;;
70253;SDS011;57649;42.968;1.608;2024-02-04T05:51:40;5.18;;;3.60;;
70253;SDS011;57649;42.968;1.608;2024-02-04T05:54:06;7.63;;;3.78;;
70253;SDS011;57649;42.968;1.608;2024-02-04T05:56:32;4.57;;;3.03;;
70253;SDS011;57649;42.968;1.608;2024-02-04T05:58:58;5.15;;;3.60;;
70253;SDS011;57649;42.968;1.608;2024-02-04T06:01:24;6.03;;;3.30;;
70253;SDS011;57649;42.968;1.608;2024-02-04T06:03:49;4.57;;;3.20;;
70253;SDS011;57649;42.968;1.608;2024-02-04T06:06:15;6.35;;;3.97;;
70253;SDS011;57649;42.968;1.608;2024-02-04T06:08:42;6.45;;;3.75;;
70253;SDS011;57649;42.968;1.608;2024-02-04T06:11:11;5.93;;;3.05;;
70253;SDS011;57649;42.968;1.608;2024-02-04T06:13:41;5.80;;;4.00;;
70253;SDS011;57649;42.968;1.608;2024-02-04T06:16:08;6.40;;;3.22;;
70253;SDS011;57649;42.968;1.608;2024-02-04T06:18:35;5.80;;;3.17;;
70253;SDS011;57649;42.968;1.608;2024-02-04T06:21:02;4.82;;;3.03;;
70253;SDS011;57649;42.968;1.608;2024-02-04T06:23:28;5.15;;;3.42;;
70253;SDS011;57649;42.968;1.608;2024-02-04T06:25:54;6.32;;;3.85;;
70253;SDS011;57649;42.968;1.608;2024-02-04T06:28:19;5.38;;;3.35;;
70253;SDS011;57649;42.968;1.608;2024-02-04T06:30:44;5.40;;;3.15;;
70253;SDS011;57649;42.968;1.608;2024-02-04T06:33:10;4.80;;;3.10;;
70253;SDS011;57649;42.968;1.608;2024-02-04T06:35:37;7.55;;;3.60;;
70253;SDS011;57649;42.968;1.608;2024-02-04T06:38:03;7.75;;;3.60;;
70253;SDS011;57649;42.968;1.608;2024-02-04T06:40:28;7.65;;;3.75;;
70253;SDS011;57649;42.968;1.608;2024-02-04T06:43:01;7.55;;;3.67;;
70253;SDS011;57649;42.968;1.608;2024-02-04T06:45:26;7.13;;;3.72;;
70253;SDS011;57649;42.968;1.608;2024-02-04T06:47:54;6.97;;;3.78;;
70253;SDS011;57649;42.968;1.608;2024-02-04T06:50:19;6.72;;;3.60;;
70253;SDS011;57649;42.968;1.608;2024-02-04T06:52:46;8.68;;;4.68;;
70253;SDS011;57649;42.968;1.608;2024-02-04T06:55:11;7.95;;;5.18;;
70253;SDS011;57649;42.968;1.608;2024-02-04T06:57:37;9.65;;;5.60;;
70253;SDS011;57649;42.968;1.608;2024-02-04T07:00:02;8.15;;;4.53;;
70253;SDS011;57649;42.968;1.608;2024-02-04T07:02:33;8.93;;;5.22;;
70253;SDS011;57649;42.968;1.608;2024-02-04T07:04:59;6.57;;;4.53;;
70253;SDS011;57649;42.968;1.608;2024-02-04T07:07:24;8.00;;;4.70;;
70253;SDS011;57649;42.968;1.608;2024-02-04T07:09:49;9.30;;;4.90;;
70253;SDS011;57649;42.968;1.608;2024-02-04T07:12:15;11.40;;;5.18;;
70253;SDS011;57649;42.968;1.608;2024-02-04T07:14:40;11.55;;;5.35;;
70253;SDS011;57649;42.968;1.608;2024-02-04T07:17:05;7.40;;;4.72;;
70253;SDS011;57649;42.968;1.608;2024-02-04T07:19:33;7.13;;;4.30;;
70253;SDS011;57649;42.968;1.608;2024-02-04T07:22:00;5.53;;;3.42;;
70253;SDS011;57649;42.968;1.608;2024-02-04T07:24:26;5.63;;;3.42;;
70253;SDS011;57649;42.968;1.608;2024-02-04T07:26:51;5.57;;;4.00;;
70253;SDS011;57649;42.968;1.608;2024-02-04T07:29:21;6.00;;;4.03;;
70253;SDS011;57649;42.968;1.608;2024-02-04T07:31:47;10.18;;;4.38;;
70253;SDS011;57649;42.968;1.608;2024-02-04T07:34:12;6.88;;;4.07;;
70253;SDS011;57649;42.968;1.608;2024-02-04T07:36:38;9.05;;;4.38;;
70253;SDS011;57649;42.968;1.608;2024-02-04T07:39:06;7.57;;;4.10;;
70253;SDS011;57649;42.968;1.608;2024-02-04T07:41:31;4.32;;;2.67;;
70253;SDS011;57649;42.968;1.608;2024-02-04T07:43:57;5.22;;;3.38;;
70253;SDS011;57649;42.968;1.608;2024-02-04T07:46:22;5.35;;;2.80;;
70253;SDS011;57649;42.968;1.608;2024-02-04T07:48:48;4.57;;;2.95;;
70253;SDS011;57649;42.968;1.608;2024-02-04T07:51:13;5.97;;;3.13;;
70253;SDS011;57649;42.968;1.608;2024-02-04T07:53:39;4.88;;;3.03;;
70253;SDS011;57649;42.968;1.608;2024-02-04T07:56:04;5.32;;;3.25;;
70253;SDS011;57649;42.968;1.608;2024-02-04T07:58:31;9.93;;;6.07;;
70253;SDS011;57649;42.968;1.608;2024-02-04T08:00:57;6.35;;;4.00;;
70253;SDS011;57649;42.968;1.608;2024-02-04T08:03:23;5.90;;;3.75;;
70253;SDS011;57649;42.968;1.608;2024-02-04T08:05:48;6.93;;;3.55;;
70253;SDS011;57649;42.968;1.608;2024-02-04T08:08:13;5.45;;;3.38;;
70253;SDS011;57649;42.968;1.608;2024-02-04T08:10:39;4.82;;;3.58;;
70253;SDS011;57649;42.968;1.608;2024-02-04T08:13:07;4.50;;;3.10;;
70253;SDS011;57649;42.968;1.608;2024-02-04T08:15:32;5.47;;;3.40;;
70253;SDS011;57649;42.968;1.608;2024-02-04T08:17:57;6.13;;;3.33;;
70253;SDS011;57649;42.968;1.608;2024-02-04T08:20:23;6.25;;;3.70;;
70253;SDS011;57649;42.968;1.608;2024-02-04T08:22:48;8.38;;;3.72;;
70253;SDS011;57649;42.968;1.608;2024-02-04T08:25:14;5.30;;;3.40;;
70253;SDS011;57649;42.968;1.608;2024-02-04T08:27:39;6.68;;;3.50;;
70253;SDS011;57649;42.968;1.608;2024-02-04T08:30:22;5.28;;;3.42;;
70253;SDS011;57649;42.968;1.608;2024-02-04T08:32:48;7.25;;;4.40;;
70253;SDS011;57649;42.968;1.608;2024-02-04T08:35:13;8.07;;;5.70;;
70253;SDS011;57649;42.968;1.608;2024-02-04T08:37:38;8.27;;;6.03;;
70253;SDS011;57649;42.968;1.608;2024-02-04T08:40:07;10.02;;;6.60;;
70253;SDS011;57649;42.968;1.608;2024-02-04T08:42:33;16.27;;;8.77;;
70253;SDS011;57649;42.968;1.608;2024-02-04T08:44:59;16.17;;;8.95;;
70253;SDS011;57649;42.968;1.608;2024-02-04T08:47:38;12.48;;;7.13;;
70253;SDS011;57649;42.968;1.608;2024-02-04T08:50:03;17.10;;;8.43;;
70253;SDS011;57649;42.968;1.608;2024-02-04T08:53:02;18.48;;;10.25;;
70253;SDS011;57649;42.968;1.608;2024-02-04T08:55:50;12.05;;;8.00;;
70253;SDS011;57649;42.968;1.608;2024-02-04T08:58:16;6.72;;;4.43;;
70253;SDS011;57649;42.968;1.608;2024-02-04T09:00:41;5.65;;;4.03;;
70253;SDS011;57649;42.968;1.608;2024-02-04T09:03:06;9.90;;;5.95;;
70253;SDS011;57649;42.968;1.608;2024-02-04T09:05:32;6.93;;;4.22;;
70253;SDS011;57649;42.968;1.608;2024-02-04T09:07:57;6.25;;;3.97;;
70253;SDS011;57649;42.968;1.608;2024-02-04T09:10:25;8.63;;;5.50;;
70253;SDS011;57649;42.968;1.608;2024-02-04T09:13:00;7.88;;;4.50;;
70253;SDS011;57649;42.968;1.608;2024-02-04T09:15:31;6.90;;;4.53;;
70253;SDS011;57649;42.968;1.608;2024-02-04T09:18:11;8.52;;;4.43;;
70253;SDS011;57649;42.968;1.608;2024-02-04T09:20:37;8.93;;;4.53;;
70253;SDS011;57649;42.968;1.608;2024-02-04T09:23:02;5.60;;;3.53;;
70253;SDS011;57649;42.968;1.608;2024-02-04T09:25:30;6.68;;;3.85;;
70253;SDS011;57649;42.968;1.608;2024-02-04T09:27:57;5.75;;;3.72;;
70253;SDS011;57649;42.968;1.608;2024-02-04T09:30:23;6.35;;;3.90;;
70253;SDS011;57649;42.968;1.608;2024-02-04T09:35:27;5.85;;;4.10;;
70253;SDS011;57649;42.968;1.608;2024-02-04T09:38:16;7.22;;;4.03;;
70253;SDS011;57649;42.968;1.608;2024-02-04T09:40:42;5.82;;;3.80;;
70253;SDS011;57649;42.968;1.608;2024-02-04T09:43:07;5.43;;;3.42;;
70253;SDS011;57649;42.968;1.608;2024-02-04T09:45:34;5.88;;;3.58;;
70253;SDS011;57649;42.968;1.608;2024-02-04T09:48:00;6.68;;;4.15;;
70253;SDS011;57649;42.968;1.608;2024-02-04T09:50:29;6.18;;;3.47;;
70253;SDS011;57649;42.968;1.608;2024-02-04T09:52:55;5.40;;;3.30;;
70253;SDS011;57649;42.968;1.608;2024-02-04T09:55:24;5.32;;;3.10;;
70253;SDS011;57649;42.968;1.608;2024-02-04T09:57:51;5.82;;;2.80;;
70253;SDS011;57649;42.968;1.608;2024-02-04T10:00:18;5.43;;;2.75;;
70253;SDS011;57649;42.968;1.608;2024-02-04T10:02:48;4.22;;;2.72;;
70253;SDS011;57649;42.968;1.608;2024-02-04T10:05:14;5.40;;;3.17;;
70253;SDS011;57649;42.968;1.608;2024-02-04T10:07:40;4.88;;;2.83;;
70253;SDS011;57649;42.968;1.608;2024-02-04T10:10:12;4.28;;;2.92;;
70253;SDS011;57649;42.968;1.608;2024-02-04T10:12:42;3.75;;;2.67;;
70253;SDS011;57649;42.968;1.608;2024-02-04T10:15:10;7.63;;;2.85;;
70253;SDS011;57649;42.968;1.608;2024-02-04T10:17:36;6.10;;;3.33;;
70253;SDS011;57649;42.968;1.608;2024-02-04T10:20:01;8.15;;;3.05;;
70253;SDS011;57649;42.968;1.608;2024-02-04T10:22:27;4.03;;;2.83;;
70253;SDS011;57649;42.968;1.608;2024-02-04T10:24:54;3.88;;;2.85;;
70253;SDS011;57649;42.968;1.608;2024-02-04T10:27:29;3.55;;;2.85;;
70253;SDS011;57649;42.968;1.608;2024-02-04T10:29:59;5.07;;;2.63;;
70253;SDS011;57649;42.968;1.608;2024-02-04T10:32:24;4.82;;;2.88;;
70253;SDS011;57649;42.968;1.608;2024-02-04T10:37:55;3.97;;;2.60;;
70253;SDS011;57649;42.968;1.608;2024-02-04T10:40:58;3.50;;;2.33;;
70253;SDS011;57649;42.968;1.608;2024-02-04T10:43:25;4.13;;;2.45;;
70253;SDS011;57649;42.968;1.608;2024-02-04T10:45:56;5.10;;;2.85;;
70253;SDS011;57649;42.968;1.608;2024-02-04T10:48:25;5.97;;;3.05;;
70253;SDS011;57649;42.968;1.608;2024-02-04T10:50:54;5.72;;;2.97;;
70253;SDS011;57649;42.968;1.608;2024-02-04T10:53:21;5.47;;;3.00;;
70253;SDS011;57649;42.968;1.608;2024-02-04T10:55:50;3.30;;;2.53;;
70253;SDS011;57649;42.968;1.608;2024-02-04T10:58:23;5.75;;;2.92;;
70253;SDS011;57649;42.968;1.608;2024-02-04T11:00:50;5.85;;;2.75;;
70253;SDS011;57649;42.968;1.608;2024-02-04T11:03:15;6.95;;;3.13;;
70253;SDS011;57649;42.968;1.608;2024-02-04T11:05:45;3.85;;;2.70;;
70253;SDS011;57649;42.968;1.608;2024-02-04T11:08:13;5.30;;;2.50;;
70253;SDS011;57649;42.968;1.608;2024-02-04T11:10:41;3.75;;;2.55;;
70253;SDS011;57649;42.968;1.608;2024-02-04T11:13:07;7.47;;;4.13;;
70253;SDS011;57649;42.968;1.608;2024-02-04T11:15:35;5.68;;;3.13;;
70253;SDS011;57649;42.968;1.608;2024-02-04T11:24:42;5.97;;;3.78;;
70253;SDS011;57649;42.968;1.608;2024-02-04T11:27:38;5.03;;;2.92;;
70253;SDS011;57649;42.968;1.608;2024-02-04T11:30:20;5.20;;;2.30;;
70253;SDS011;57649;42.968;1.608;2024-02-04T11:32:48;4.25;;;2.38;;
70253;SDS011;57649;42.968;1.608;2024-02-04T11:35:16;4.57;;;3.10;;
70253;SDS011;57649;42.968;1.608;2024-02-04T11:37:49;7.00;;;4.03;;
70253;SDS011;57649;42.968;1.608;2024-02-04T11:40:41;6.20;;;3.88;;
70253;SDS011;57649;42.968;1.608;2024-02-04T11:43:07;4.20;;;2.50;;
70253;SDS011;57649;42.968;1.608;2024-02-04T11:45:39;4.40;;;2.75;;
70253;SDS011;57649;42.968;1.608;2024-02-04T11:48:11;4.82;;;3.25;;
70253;SDS011;57649;42.968;1.608;2024-02-04T11:50:39;4.35;;;2.88;;
70253;SDS011;57649;42.968;1.608;2024-02-04T11:53:11;6.35;;;4.38;;
70253;SDS011;57649;42.968;1.608;2024-02-04T11:55:41;4.85;;;3.58;;
70253;SDS011;57649;42.968;1.608;2024-02-04T11:58:06;7.50;;;3.17;;
70253;SDS011;57649;42.968;1.608;2024-02-04T12:00:33;4.38;;;2.90;;
70253;SDS011;57649;42.968;1.608;2024-02-04T12:06:23;6.07;;;3.83;;
70253;SDS011;57649;42.968;1.608;2024-02-04T12:09:05;6.80;;;4.70;;
70253;SDS011;57649;42.968;1.608;2024-02-04T12:12:05;5.65;;;4.22;;
70253;SDS011;57649;42.968;1.608;2024-02-04T12:14:52;5.95;;;4.50;;
70253;SDS011;57649;42.968;1.608;2024-02-04T12:17:25;6.82;;;4.53;;
70253;SDS011;57649;42.968;1.608;2024-02-04T12:20:31;6.87;;;5.00;;
70253;SDS011;57649;42.968;1.608;2024-02-04T12:23:17;7.03;;;4.32;;
70253;SDS011;57649;42.968;1.608;2024-02-04T12:26:08;4.47;;;3.38;;
70253;SDS011;57649;42.968;1.608;2024-02-04T12:28:54;5.80;;;4.00;;
70253;SDS011;57649;42.968;1.608;2024-02-04T12:31:26;7.28;;;3.97;;
70253;SDS011;57649;42.968;1.608;2024-02-04T12:33:57;5.75;;;4.07;;
70253;SDS011;57649;42.968;1.608;2024-02-04T12:36:26;5.72;;;4.45;;
70253;SDS011;57649;42.968;1.608;2024-02-04T12:38:53;8.15;;;4.80;;
70253;SDS011;57649;42.968;1.608;2024-02-04T12:41:23;6.28;;;4.20;;
70253;SDS011;57649;42.968;1.608;2024-02-04T12:43:58;5.55;;;3.50;;
70253;SDS011;57649;42.968;1.608;2024-02-04T12:46:25;5.75;;;3.72;;
70253;SDS011;57649;42.968;1.608;2024-02-04T12:48:51;7.03;;;4.43;;
70253;SDS011;57649;42.968;1.608;2024-02-04T12:51:26;4.65;;;3.40;;
70253;SDS011;57649;42.968;1.608;2024-02-04T12:54:08;5.78;;;3.17;;
70253;SDS011;57649;42.968;1.608;2024-02-04T12:56:45;5.50;;;3.40;;
70253;SDS011;57649;42.968;1.608;2024-02-04T12:59:33;6.75;;;3.90;;
70253;SDS011;57649;42.968;1.608;2024-02-04T13:02:02;6.50;;;4.05;;
70253;SDS011;57649;42.968;1.608;2024-02-04T13:07:10;7.45;;;4.05;;
70253;SDS011;57649;42.968;1.608;2024-02-04T13:09:38;6.40;;;3.47;;
70253;SDS011;57649;42.968;1.608;2024-02-04T13:12:04;6.07;;;3.40;;
70253;SDS011;57649;42.968;1.608;2024-02-04T13:14:41;3.95;;;2.63;;
70253;SDS011;57649;42.968;1.608;2024-02-04T13:17:10;4.90;;;2.30;;
70253;SDS011;57649;42.968;1.608;2024-02-04T13:19:38;4.90;;;3.17;;
70253;SDS011;57649;42.968;1.608;2024-02-04T13:22:11;6.53;;;3.90;;
70253;SDS011;57649;42.968;1.608;2024-02-04T13:25:25;4.35;;;2.95;;
70253;SDS011;57649;42.968;1.608;2024-02-04T13:27:53;4.22;;;3.00;;
70253;SDS011;57649;42.968;1.608;2024-02-04T13:30:28;4.78;;;2.90;;
70253;SDS011;57649;42.968;1.608;2024-02-04T13:32:56;4.63;;;3.20;;
70253;SDS011;57649;42.968;1.608;2024-02-04T13:35:38;3.13;;;2.67;;
70253;SDS011;57649;42.968;1.608;2024-02-04T13:38:10;4.97;;;4.05;;
70253;SDS011;57649;42.968;1.608;2024-02-04T13:40:36;5.55;;;3.78;;
70253;SDS011;57649;42.968;1.608;2024-02-04T13:43:02;5.63;;;3.38;;
70253;SDS011;57649;42.968;1.608;2024-02-04T13:45:30;5.00;;;3.50;;
70253;SDS011;57649;42.968;1.608;2024-02-04T13:47:58;4.78;;;4.00;;
70253;SDS011;57649;42.968;1.608;2024-02-04T13:50:26;5.75;;;3.90;;
70253;SDS011;57649;42.968;1.608;2024-02-04T13:52:59;5.55;;;4.65;;
70253;SDS011;57649;42.968;1.608;2024-02-04T13:55:31;5.85;;;3.80;;
70253;SDS011;57649;42.968;1.608;2024-02-04T13:57:56;7.50;;;4.38;;
70253;SDS011;57649;42.968;1.608;2024-02-04T14:00:31;5.38;;;3.60;;
70253;SDS011;57649;42.968;1.608;2024-02-04T14:02:56;5.60;;;3.17;;
70253;SDS011;57649;42.968;1.608;2024-02-04T14:05:22;5.25;;;3.30;;
70253;SDS011;57649;42.968;1.608;2024-02-04T14:07:52;11.35;;;3.30;;
70253;SDS011;57649;42.968;1.608;2024-02-04T14:10:21;7.55;;;4.45;;
70253;SDS011;57649;42.968;1.608;2024-02-04T14:12:54;7.03;;;2.97;;
70253;SDS011;57649;42.968;1.608;2024-02-04T14:15:22;7.40;;;3.30;;
70253;SDS011;57649;42.968;1.608;2024-02-04T14:21:07;8.63;;;4.68;;
70253;SDS011;57649;42.968;1.608;2024-02-04T14:23:41;5.30;;;4.55;;
70253;SDS011;57649;42.968;1.608;2024-02-04T14:26:10;9.25;;;4.90;;
70253;SDS011;57649;42.968;1.608;2024-02-04T14:28:46;7.95;;;6.18;;
70253;SDS011;57649;42.968;1.608;2024-02-04T14:31:22;7.72;;;6.40;;
70253;SDS011;57649;42.968;1.608;2024-02-04T14:33:50;7.55;;;6.22;;
70253;SDS011;57649;42.968;1.608;2024-02-04T14:36:24;8.40;;;6.30;;
70253;SDS011;57649;42.968;1.608;2024-02-04T14:38:52;9.43;;;7.22;;
70253;SDS011;57649;42.968;1.608;2024-02-04T14:41:20;9.27;;;6.47;;
70253;SDS011;57649;42.968;1.608;2024-02-04T14:46:24;6.40;;;5.60;;
70253;SDS011;57649;42.968;1.608;2024-02-04T14:49:08;7.43;;;5.90;;
70253;SDS011;57649;42.968;1.608;2024-02-04T14:51:49;8.48;;;5.80;;
70253;SDS011;57649;42.968;1.608;2024-02-04T14:54:25;7.82;;;6.22;;
70253;SDS011;57649;42.968;1.608;2024-02-04T14:56:59;8.73;;;6.28;;
70253;SDS011;57649;42.968;1.608;2024-02-04T14:59:27;9.13;;;7.10;;
70253;SDS011;57649;42.968;1.608;2024-02-04T15:02:02;7.85;;;6.57;;
70253;SDS011;57649;42.968;1.608;2024-02-04T15:04:30;7.70;;;6.38;;
70253;SDS011;57649;42.968;1.608;2024-02-04T15:07:00;9.55;;;7.47;;
70253;SDS011;57649;42.968;1.608;2024-02-04T15:09:41;8.05;;;6.72;;
70253;SDS011;57649;42.968;1.608;2024-02-04T15:12:06;8.32;;;6.22;;
70253;SDS011;57649;42.968;1.608;2024-02-04T15:14:32;10.02;;;7.57;;
70253;SDS011;57649;42.968;1.608;2024-02-04T15:17:00;9.25;;;6.60;;
70253;SDS011;57649;42.968;1.608;2024-02-04T15:19:26;7.15;;;5.30;;
70253;SDS011;57649;42.968;1.608;2024-02-04T15:21:52;7.80;;;5.75;;
70253;SDS011;57649;42.968;1.608;2024-02-04T15:24:18;8.27;;;6.47;;
70253;SDS011;57649;42.968;1.608;2024-02-04T15:26:44;7.22;;;5.43;;
70253;SDS011;57649;42.968;1.608;2024-02-04T15:29:13;7.30;;;6.10;;